Time;durP1;ratioP1;P1;durP2;ratioP2;P2;SDS_P1;SDS_P2;PMS_P1;PMS_P2;Temp;Humidity;BMP_temperature;BMP_pressure;BME280_temperature;BME280_humidity;BME280_pressure;Samples;Min_cycle;Max_cycle;Signal;HPM_P1;HPM_P2
2023/04/23 00:01:27;;;;;;;3.10;1.77;;;;;;;16.83;87.06;99742.03;5161966;28;20034;-73
2023/04/23 00:03:58;;;;;;;3.17;1.55;;;;;;;16.80;87.34;99744.09;5163834;28;20485;-71
2023/04/23 00:06:29;;;;;;;2.35;1.70;;;;;;;16.77;87.86;99731.13;5160633;28;20034;-74
2023/04/23 00:11:42;;;;;;;3.78;1.88;;;;;;;16.67;89.46;99739.81;5191996;28;20045;-73
2023/04/23 00:14:13;;;;;;;2.53;1.60;;;;;;;16.78;89.78;99743.38;5191221;28;20045;-74
2023/04/23 00:16:43;;;;;;;4.35;1.65;;;;;;;16.60;90.66;99736.81;5197105;28;20028;-73
2023/04/23 00:19:14;;;;;;;4.38;1.77;;;;;;;16.68;91.07;99729.16;5191030;28;20041;-73
2023/04/23 00:21:44;;;;;;;3.97;1.88;;;;;;;16.77;90.67;99732.91;5194864;28;20029;-73
2023/04/23 00:24:14;;;;;;;4.03;2.22;;;;;;;16.60;91.37;99736.81;5178719;28;20029;-73
2023/04/23 00:26:45;;;;;;;3.10;1.77;;;;;;;16.51;92.28;99726.91;5187530;28;20024;-73
2023/04/23 00:29:15;;;;;;;3.65;1.80;;;;;;;16.42;93.02;99727.56;5196942;28;20028;-74
2023/04/23 00:31:45;;;;;;;3.50;1.90;;;;;;;16.43;93.20;99733.69;5196805;28;20025;-73
2023/04/23 00:34:15;;;;;;;3.65;1.73;;;;;;;16.42;93.66;99724.94;5193726;28;20022;-74
2023/04/23 00:36:46;;;;;;;4.70;2.42;;;;;;;16.52;93.37;99739.13;5193621;28;20047;-73
2023/04/23 00:39:16;;;;;;;5.13;1.90;;;;;;;16.43;94.07;99742.47;5186915;28;20309;-74
2023/04/23 00:41:47;;;;;;;4.85;1.90;;;;;;;16.31;95.19;99735.41;5190545;28;20210;-73
2023/04/23 00:44:17;;;;;;;5.05;2.40;;;;;;;16.30;95.30;99733.72;5184414;28;20237;-74
2023/04/23 00:46:49;;;;;;;2.97;1.98;;;;;;;16.31;95.05;99730.13;5200286;28;20037;-72
2023/04/23 00:49:20;;;;;;;2.58;1.90;;;;;;;16.28;96.48;99730.34;5189895;28;20026;-74
2023/04/23 00:51:51;;;;;;;3.33;2.20;;;;;;;16.22;96.84;99732.59;5196263;28;20453;-75
2023/04/23 00:54:21;;;;;;;8.15;2.28;;;;;;;16.22;97.09;99725.50;5190282;28;20205;-72
2023/04/23 00:56:53;;;;;;;3.53;1.95;;;;;;;16.22;97.14;99733.41;5194144;28;20025;-73
2023/04/23 00:59:28;;;;;;;6.03;2.30;;;;;;;16.29;96.47;99732.03;5194074;28;20022;-71
2023/04/23 01:01:59;;;;;;;5.07;2.20;;;;;;;16.24;97.48;99726.22;5204613;28;20382;-70
2023/04/23 01:04:31;;;;;;;3.45;1.92;;;;;;;16.33;97.36;99725.59;5195099;28;20076;-69
2023/04/23 01:07:02;;;;;;;4.63;2.55;;;;;;;16.33;96.72;99719.44;5192614;28;20024;-71
2023/04/23 01:09:32;;;;;;;5.47;2.20;;;;;;;16.45;97.33;99726.50;5192369;28;20442;-72
2023/04/23 01:12:04;;;;;;;3.63;2.20;;;;;;;16.31;97.89;99730.13;5192327;28;20032;-71
2023/04/23 01:14:36;;;;;;;3.42;2.13;;;;;;;16.24;98.39;99712.22;5195213;28;20037;-70
2023/04/23 01:17:08;;;;;;;2.90;1.80;;;;;;;16.17;98.59;99722.34;5195324;28;20029;-71
2023/04/23 01:19:38;;;;;;;3.42;1.90;;;;;;;16.17;99.02;99725.00;5187273;28;20296;-73
2023/04/23 01:22:12;;;;;;;3.72;1.85;;;;;;;16.13;99.48;99720.03;5189672;28;20030;-70
2023/04/23 01:24:44;;;;;;;5.20;2.25;;;;;;;16.06;100.00;99714.38;5192893;28;20037;-71
2023/04/23 01:27:15;;;;;;;3.40;2.10;;;;;;;16.07;100.00;99720.50;5192190;28;20400;-71
2023/04/23 01:29:46;;;;;;;2.95;1.92;;;;;;;16.02;100.00;99720.00;5200571;28;20475;-71
2023/04/23 01:32:16;;;;;;;2.88;1.80;;;;;;;16.04;100.00;99726.00;5198137;28;20505;-73
2023/04/23 01:34:48;;;;;;;5.00;2.20;;;;;;;16.07;99.46;99721.31;5195211;28;20033;-71
2023/04/23 01:37:19;;;;;;;3.53;2.00;;;;;;;16.10;99.50;99718.50;5200691;28;20107;-72
2023/04/23 01:39:50;;;;;;;3.92;2.30;;;;;;;16.15;99.72;99718.13;5200685;28;20035;-73
2023/04/23 01:42:22;;;;;;;5.25;2.50;;;;;;;16.04;100.00;99715.44;5201085;28;20032;-71
2023/04/23 01:44:52;;;;;;;4.10;2.05;;;;;;;16.04;100.00;99711.00;5206876;28;20029;-71
2023/04/23 01:47:23;;;;;;;4.05;2.10;;;;;;;15.98;100.00;99719.34;5207611;28;20024;-71
2023/04/23 01:49:54;;;;;;;2.97;2.00;;;;;;;15.97;100.00;99719.44;5201098;28;20087;-73
2023/04/23 01:52:25;;;;;;;5.90;2.45;;;;;;;16.04;100.00;99720.72;5201375;28;20063;-70
2023/04/23 01:54:55;;;;;;;4.50;2.22;;;;;;;15.99;100.00;99713.13;5201511;28;20467;-71
2023/04/23 01:57:25;;;;;;;3.55;2.15;;;;;;;15.85;100.00;99715.06;5198648;28;20036;-72
2023/04/23 02:00:06;;;;;;;5.35;2.15;;;;;;;15.80;100.00;99714.53;5196206;28;20328;-71
2023/04/23 02:02:38;;;;;;;3.25;2.15;;;;;;;15.84;100.00;99716.03;5201181;28;20171;-71
2023/04/23 02:05:11;;;;;;;3.90;2.17;;;;;;;15.69;100.00;99715.28;5202330;28;20083;-70
2023/04/23 02:07:43;;;;;;;5.50;2.75;;;;;;;15.65;100.00;99708.56;5198885;28;20025;-72
2023/04/23 02:10:13;;;;;;;5.95;2.95;;;;;;;15.53;100.00;99714.66;5198603;28;20418;-71
2023/04/23 02:12:44;;;;;;;4.22;2.20;;;;;;;15.59;100.00;99716.91;5202279;28;20029;-71
2023/04/23 02:15:15;;;;;;;3.50;2.22;;;;;;;15.59;100.00;99714.25;5198180;28;20483;-71
2023/04/23 02:17:45;;;;;;;2.80;1.95;;;;;;;15.67;100.00;99714.56;5194808;28;20025;-71
2023/04/23 02:20:16;;;;;;;5.22;1.90;;;;;;;15.67;100.00;99719.00;5199599;28;20049;-73
2023/04/23 02:22:48;;;;;;;3.83;1.90;;;;;;;15.76;100.00;99719.19;5203148;28;20114;-71
2023/04/23 02:25:20;;;;;;;3.67;2.10;;;;;;;15.74;100.00;99718.44;5191771;28;20128;-74
2023/04/23 02:27:51;;;;;;;5.22;2.20;;;;;;;15.73;100.00;99715.94;5192968;28;20549;-71
2023/04/23 02:30:21;;;;;;;5.35;1.90;;;;;;;15.75;100.00;99716.66;5195801;28;20247;-73
2023/04/23 02:32:52;;;;;;;4.43;2.00;;;;;;;15.74;100.00;99715.81;5193537;28;20416;-71
2023/04/23 02:35:23;;;;;;;3.55;1.98;;;;;;;15.67;100.00;99727.72;5191388;28;20221;-71
2023/04/23 02:37:53;;;;;;;3.80;2.10;;;;;;;15.63;100.00;99733.31;5190073;28;20110;-71
2023/04/23 02:40:23;;;;;;;4.07;2.00;;;;;;;15.51;100.00;99727.09;5187973;28;20032;-72
2023/04/23 02:42:54;;;;;;;3.47;1.90;;;;;;;15.44;100.00;99717.09;5195073;28;20045;-71
2023/04/23 02:45:24;;;;;;;3.78;2.20;;;;;;;15.33;100.00;99723.09;5192101;28;20030;-72
2023/04/23 02:47:55;;;;;;;3.60;1.90;;;;;;;15.30;100.00;99736.47;5191832;28;20104;-74
2023/04/23 02:50:25;;;;;;;5.13;2.20;;;;;;;15.27;100.00;99734.03;5187119;28;20703;-72
2023/04/23 02:52:55;;;;;;;4.13;1.92;;;;;;;15.27;100.00;99727.91;5194056;28;20474;-72
2023/04/23 02:55:30;;;;;;;5.20;2.25;;;;;;;15.40;100.00;99729.63;5198066;28;20545;-72
2023/04/23 02:58:01;;;;;;;2.90;2.20;;;;;;;15.21;100.00;99728.34;5189646;28;20441;-72
2023/04/23 03:00:31;;;;;;;4.35;2.20;;;;;;;15.15;100.00;99731.41;5196473;28;20339;-71
2023/04/23 03:03:01;;;;;;;6.35;2.47;;;;;;;15.01;100.00;99736.72;5198393;28;20060;-72
2023/04/23 03:05:31;;;;;;;3.50;1.90;;;;;;;15.03;100.00;99737.47;5194950;28;20033;-72
2023/04/23 03:08:02;;;;;;;3.28;2.28;;;;;;;14.96;100.00;99739.66;5195882;28;20478;-72
2023/04/23 03:10:32;;;;;;;4.10;2.20;;;;;;;15.03;100.00;99737.47;5192945;28;20122;-71
2023/04/23 03:13:02;;;;;;;3.10;2.00;;;;;;;15.03;100.00;99742.72;5198659;28;20028;-71
2023/04/23 03:15:33;;;;;;;4.28;2.85;;;;;;;15.03;100.00;99746.19;5196851;28;20025;-71
2023/04/23 03:18:07;;;;;;;4.90;2.42;;;;;;;14.90;100.00;99741.84;5190659;28;20025;-71
2023/04/23 03:20:37;;;;;;;3.97;2.33;;;;;;;14.83;100.00;99746.66;5194900;28;20053;-70
2023/04/23 03:23:08;;;;;;;4.90;2.42;;;;;;;14.83;100.00;99751.94;5199701;28;20115;-69
2023/04/23 03:25:38;;;;;;;5.00;2.30;;;;;;;14.76;100.00;99747.19;5197811;28;20040;-71
2023/04/23 03:28:08;;;;;;;6.00;2.78;;;;;;;14.72;100.00;99747.47;5201407;28;20041;-72
2023/04/23 03:30:39;;;;;;;4.22;2.42;;;;;;;14.70;100.00;99741.47;5196960;28;20037;-71
2023/04/23 03:33:09;;;;;;;5.15;2.67;;;;;;;14.65;100.00;99746.19;5195708;28;20033;-70
2023/04/23 03:35:40;;;;;;;4.15;2.80;;;;;;;14.62;100.00;99749.84;5197262;28;20364;-71
2023/04/23 03:38:10;;;;;;;4.40;2.65;;;;;;;14.65;100.00;99751.47;5192728;28;20091;-70
2023/04/23 03:40:40;;;;;;;4.60;2.90;;;;;;;14.73;100.00;99752.66;5195135;28;20497;-71
2023/04/23 03:43:11;;;;;;;4.45;2.88;;;;;;;14.64;100.00;99757.66;5194587;28;20033;-72
2023/04/23 03:45:41;;;;;;;7.65;3.47;;;;;;;14.80;100.00;99758.34;5198972;28;20501;-69
2023/04/23 03:48:11;;;;;;;6.57;3.97;;;;;;;14.70;100.00;99759.88;5191740;28;20541;-71
2023/04/23 03:50:41;;;;;;;11.63;5.35;;;;;;;14.63;100.00;99759.44;5193112;28;20021;-72
2023/04/23 03:53:12;;;;;;;6.88;4.25;;;;;;;14.50;100.00;99755.06;5194331;28;20029;-72
2023/04/23 03:55:43;;;;;;;8.05;4.88;;;;;;;14.44;100.00;99752.84;5197557;28;20029;-71
2023/04/23 03:58:13;;;;;;;8.32;5.32;;;;;;;14.53;100.00;99760.13;5194876;28;20025;-72
2023/04/23 04:00:44;;;;;;;8.43;5.30;;;;;;;14.39;100.00;99757.56;5196259;28;20285;-71
2023/04/23 04:03:14;;;;;;;9.63;5.70;;;;;;;14.37;100.00;99762.06;5192547;28;20172;-71
2023/04/23 04:05:44;;;;;;;9.98;5.43;;;;;;;14.40;100.00;99764.50;5189317;28;20345;-71
2023/04/23 04:08:15;;;;;;;10.15;5.88;;;;;;;14.44;100.00;99758.94;5190759;28;20491;-72
2023/04/23 04:10:45;;;;;;;10.85;5.90;;;;;;;14.49;100.00;99770.03;5191238;28;20053;-72
2023/04/23 04:13:15;;;;;;;10.35;6.43;;;;;;;14.32;100.00;99772.88;5189355;28;20018;-71
2023/04/23 04:15:46;;;;;;;10.65;6.57;;;;;;;14.22;100.00;99771.75;5201621;28;20056;-72
2023/04/23 04:18:16;;;;;;;11.10;6.82;;;;;;;14.27;100.00;99779.38;5193109;28;20029;-71
2023/04/23 04:20:46;;;;;;;10.13;6.22;;;;;;;14.22;100.00;99778.81;5196020;28;20026;-72
2023/04/23 04:23:17;;;;;;;12.15;7.80;;;;;;;14.26;100.00;99786.41;5191153;28;20029;-72
2023/04/23 04:25:49;;;;;;;11.38;7.25;;;;;;;14.16;100.00;99784.44;5193202;28;20029;-72
2023/04/23 04:28:20;;;;;;;13.48;8.10;;;;;;;14.11;100.00;99786.50;5190096;28;20021;-73
2023/04/23 04:30:52;;;;;;;15.43;8.73;;;;;;;14.02;100.00;99789.66;5194802;28;20026;-71
2023/04/23 04:33:24;;;;;;;15.23;8.85;;;;;;;14.08;100.00;99794.56;5192314;28;20097;-71
2023/04/23 04:35:56;;;;;;;19.55;10.52;;;;;;;13.98;100.00;99789.03;5195826;28;20063;-72
2023/04/23 04:38:27;;;;;;;20.10;11.07;;;;;;;13.91;100.00;99798.22;5189579;28;20022;-73
2023/04/23 04:41:01;;;;;;;19.63;10.68;;;;;;;13.87;100.00;99804.59;5191342;28;20048;-71
2023/04/23 04:43:31;;;;;;;21.60;11.60;;;;;;;13.84;100.00;99804.81;5193251;28;20238;-71
2023/04/23 04:46:02;;;;;;;21.63;11.65;;;;;;;13.79;100.00;99803.38;5198603;28;20390;-71
2023/04/23 04:48:33;;;;;;;20.38;11.10;;;;;;;13.71;100.00;99805.66;5190315;28;20037;-71
2023/04/23 04:51:03;;;;;;;21.25;11.80;;;;;;;13.71;100.00;99805.66;5195019;28;20095;-72
2023/04/23 04:53:34;;;;;;;21.45;11.35;;;;;;;13.74;100.00;99816.78;5192658;28;20060;-71
2023/04/23 04:56:05;;;;;;;22.05;12.13;;;;;;;13.69;100.00;99815.38;5195638;28;20024;-71
2023/04/23 04:58:35;;;;;;;19.90;11.20;;;;;;;13.54;100.00;99813.69;5191382;28;20022;-71
2023/04/23 05:01:05;;;;;;;21.33;11.05;;;;;;;13.64;100.00;99820.06;5193003;28;20078;-72
2023/04/23 05:03:36;;;;;;;20.00;11.57;;;;;;;13.59;100.00;99814.25;5193182;28;20053;-72
2023/04/23 05:06:06;;;;;;;20.73;10.93;;;;;;;13.53;100.00;99822.47;5188401;28;20472;-73
2023/04/23 05:08:37;;;;;;;24.80;13.45;;;;;;;13.57;100.00;99822.22;5186941;28;20034;-71
2023/04/23 05:11:07;;;;;;;21.35;12.00;;;;;;;13.69;100.00;99825.88;5189452;28;20057;-73
2023/04/23 05:13:37;;;;;;;21.60;12.10;;;;;;;13.70;100.00;99832.81;5195619;28;20053;-72
2023/04/23 05:16:08;;;;;;;23.83;12.45;;;;;;;13.52;100.00;99831.28;5197179;28;20021;-72
2023/04/23 05:18:40;;;;;;;22.05;12.23;;;;;;;13.53;100.00;99833.84;5189197;28;20064;-71
2023/04/23 05:21:11;;;;;;;24.77;12.43;;;;;;;13.52;100.00;99831.28;5188742;28;20025;-71
2023/04/23 05:23:41;;;;;;;23.40;12.57;;;;;;;13.59;100.00;99830.00;5188777;28;20037;-71
2023/04/23 05:26:12;;;;;;;26.92;13.43;;;;;;;13.53;100.00;99840.84;5187697;28;20479;-74
2023/04/23 05:28:42;;;;;;;25.60;13.05;;;;;;;13.68;100.00;99842.56;5192477;28;20100;-72
2023/04/23 05:31:12;;;;;;;23.67;12.20;;;;;;;13.52;100.00;99836.53;5191823;28;20056;-71
2023/04/23 05:33:43;;;;;;;23.65;12.50;;;;;;;13.69;100.00;99844.25;5191627;28;20025;-71
2023/04/23 05:36:14;;;;;;;23.80;11.90;;;;;;;13.69;100.00;99857.38;5185730;28;20029;-71
2023/04/23 05:38:44;;;;;;;24.08;12.55;;;;;;;13.71;100.00;99852.91;5188025;28;20502;-72
2023/04/23 05:41:15;;;;;;;24.00;12.57;;;;;;;13.62;100.00;99856.06;5183329;28;20029;-72
2023/04/23 05:43:45;;;;;;;25.70;12.43;;;;;;;13.61;100.00;99862.25;5198287;28;20711;-71
2023/04/23 05:46:15;;;;;;;25.08;12.73;;;;;;;13.70;100.00;99854.69;5192740;28;20029;-71
2023/04/23 05:48:46;;;;;;;23.13;12.27;;;;;;;13.71;100.00;99859.00;5188955;28;20025;-71
2023/04/23 05:51:16;;;;;;;23.75;12.38;;;;;;;13.73;100.00;99858.91;5186332;28;20104;-73
2023/04/23 05:53:46;;;;;;;26.83;12.93;;;;;;;13.69;100.00;99857.38;5193124;28;20109;-71
2023/04/23 05:56:17;;;;;;;23.42;13.07;;;;;;;13.80;100.00;99861.09;5189557;28;20033;-71
2023/04/23 05:58:47;;;;;;;27.63;13.77;;;;;;;13.80;100.00;99875.97;5189975;28;20502;-72
2023/04/23 06:01:18;;;;;;;23.35;13.07;;;;;;;13.62;100.00;99867.44;5193306;28;20038;-71
2023/04/23 06:03:48;;;;;;;24.48;12.70;;;;;;;13.74;100.00;99871.94;5188305;28;20047;-71
2023/04/23 06:06:19;;;;;;;22.75;12.45;;;;;;;13.87;100.00;99872.91;5186044;28;20132;-71
2023/04/23 06:08:50;;;;;;;27.75;13.30;;;;;;;13.82;100.00;99885.47;5189936;28;20447;-71
2023/04/23 06:11:21;;;;;;;24.25;12.82;;;;;;;13.83;100.00;99868.78;5211499;23;20048;-71
2023/04/23 06:13:51;;;;;;;23.25;13.02;;;;;;;13.81;100.00;99868.03;5189946;28;20026;-72
2023/04/23 06:16:22;;;;;;;25.15;13.18;;;;;;;13.79;100.00;99874.28;5187712;28;20112;-72
2023/04/23 06:18:55;;;;;;;26.05;13.48;;;;;;;13.80;100.00;99868.09;5183736;28;20385;-72
2023/04/23 06:21:26;;;;;;;24.77;12.93;;;;;;;13.91;100.00;99876.19;5190170;28;20053;-72
2023/04/23 06:23:56;;;;;;;25.65;14.02;;;;;;;13.90;100.00;99874.50;5189638;28;20056;-72
2023/04/23 06:26:26;;;;;;;24.25;13.40;;;;;;;13.90;100.00;99874.50;5188325;28;20060;-72
2023/04/23 06:28:56;;;;;;;27.55;14.20;;;;;;;13.83;100.00;99878.44;5185336;28;20725;-72
2023/04/23 06:31:27;;;;;;;23.10;13.35;;;;;;;13.91;100.00;99873.56;5189602;28;20029;-72
2023/04/23 06:33:57;;;;;;;24.52;13.38;;;;;;;13.91;100.00;99881.47;5182585;28;20164;-72
2023/04/23 06:36:28;;;;;;;26.67;13.95;;;;;;;13.70;100.00;99882.72;5163911;28;20079;-72
2023/04/23 06:38:58;;;;;;;24.52;13.65;;;;;;;13.93;100.00;99880.41;5185471;28;20025;-72
2023/04/23 06:41:28;;;;;;;24.95;14.00;;;;;;;13.81;100.00;99882.94;5185068;28;20198;-72
2023/04/23 06:43:59;;;;;;;29.92;14.23;;;;;;;13.65;100.00;99887.41;5187558;28;20044;-72
2023/04/23 06:46:29;;;;;;;25.48;14.05;;;;;;;13.67;100.00;99882.91;5185453;28;20220;-72
2023/04/23 06:49:00;;;;;;;25.75;14.02;;;;;;;13.66;100.00;99882.06;5181992;28;20044;-72
2023/04/23 06:51:31;;;;;;;23.45;13.70;;;;;;;13.69;100.00;99884.50;5188456;28;20261;-71
2023/04/23 06:54:01;;;;;;;26.30;14.68;;;;;;;13.68;100.00;99885.44;5186617;28;20030;-72
2023/04/23 06:56:31;;;;;;;27.52;13.88;;;;;;;13.74;100.00;99882.44;5188822;28;20056;-72
2023/04/23 06:59:02;;;;;;;25.98;14.27;;;;;;;13.77;100.00;99884.88;5185183;28;20518;-72
2023/04/23 07:01:33;;;;;;;25.52;14.27;;;;;;;13.79;100.00;99885.66;5187829;28;20033;-72
2023/04/23 07:04:04;;;;;;;26.35;14.43;;;;;;;13.86;100.00;99889.59;5187910;28;20034;-72
2023/04/23 07:06:34;;;;;;;26.85;14.27;;;;;;;13.76;100.00;99882.38;5191855;28;20091;-71
2023/04/23 07:09:05;;;;;;;27.00;15.52;;;;;;;13.81;100.00;99886.41;5185511;28;20059;-72
2023/04/23 07:11:35;;;;;;;31.13;15.60;;;;;;;13.84;100.00;99882.75;5185276;28;20044;-72
2023/04/23 07:14:06;;;;;;;27.70;14.73;;;;;;;13.77;100.00;99879.63;5186172;28;20041;-72
2023/04/23 07:16:36;;;;;;;28.02;14.63;;;;;;;13.74;100.00;99882.44;5190152;28;20036;-73
2023/04/23 07:19:06;;;;;;;30.83;15.23;;;;;;;13.78;100.00;99876.06;5185180;28;20037;-72
2023/04/23 07:21:36;;;;;;;26.25;14.55;;;;;;;13.80;100.00;99883.88;5187806;28;20029;-72
2023/04/23 07:24:07;;;;;;;28.60;15.20;;;;;;;13.96;100.00;99887.25;5188438;28;20030;-73
2023/04/23 07:26:37;;;;;;;26.85;14.52;;;;;;;13.82;100.00;99889.88;5186602;28;20033;-73
2023/04/23 07:29:09;;;;;;;27.80;14.63;;;;;;;14.13;100.00;99881.84;5187354;28;20462;-73
2023/04/23 07:31:43;;;;;;;27.23;15.02;;;;;;;14.20;100.00;99870.03;5184678;28;20044;-70
2023/04/23 07:34:13;;;;;;;27.55;14.35;;;;;;;14.43;100.00;99872.09;5185635;28;20068;-72
2023/04/23 07:36:43;;;;;;;29.60;15.95;;;;;;;14.88;100.00;99862.97;5186842;28;20281;-73
2023/04/23 07:39:14;;;;;;;30.08;15.70;;;;;;;14.94;100.00;99857.34;5170214;28;20084;-73
2023/04/23 07:41:45;;;;;;;28.05;15.10;;;;;;;14.81;100.00;99865.25;5189803;28;20044;-72
2023/04/23 07:44:15;;;;;;;24.60;13.68;;;;;;;14.73;100.00;99870.19;5189527;28;20503;-72
2023/04/23 07:46:46;;;;;;;27.58;14.82;;;;;;;14.53;100.00;99865.31;5189515;28;20045;-72
2023/04/23 07:49:16;;;;;;;26.98;14.70;;;;;;;14.87;100.00;99871.81;5186950;28;20075;-73
2023/04/23 07:51:47;;;;;;;25.15;14.40;;;;;;;15.22;100.00;99859.84;5169065;28;20049;-73
2023/04/23 07:54:18;;;;;;;23.65;13.50;;;;;;;15.40;100.00;99857.81;5192076;28;20029;-73
2023/04/23 07:56:49;;;;;;;24.05;13.25;;;;;;;15.57;100.00;99853.09;5189063;28;20503;-72
2023/04/23 07:59:19;;;;;;;26.10;13.90;;;;;;;16.17;100.00;99853.31;5188104;28;20029;-73
2023/04/23 08:01:50;;;;;;;22.65;13.25;;;;;;;17.02;96.86;99860.34;5186628;28;20749;-71
2023/04/23 08:04:20;;;;;;;20.40;12.50;;;;;;;16.86;95.50;99865.03;5192887;28;20039;-73
2023/04/23 08:06:51;;;;;;;20.90;12.55;;;;;;;16.64;92.78;99864.91;5189810;28;20042;-71
2023/04/23 08:09:21;;;;;;;22.38;13.35;;;;;;;18.49;87.35;99854.25;5169727;28;20655;-74
2023/04/23 08:11:52;;;;;;;20.65;12.20;;;;;;;20.13;77.52;99850.16;5187361;28;20103;-73
2023/04/23 08:14:22;;;;;;;18.52;11.85;;;;;;;19.95;78.75;99849.88;5186995;28;20057;-73
2023/04/23 08:16:52;;;;;;;22.20;12.40;;;;;;;20.15;75.47;99854.34;5187904;28;20450;-73
2023/04/23 08:19:23;;;;;;;17.88;10.70;;;;;;;21.17;77.28;99850.47;5185808;28;20030;-73
2023/04/23 08:21:53;;;;;;;17.20;10.87;;;;;;;21.64;72.94;99849.69;5187332;28;20103;-72
2023/04/23 08:24:24;;;;;;;15.65;10.27;;;;;;;24.37;64.79;99832.06;5188179;28;20311;-74
2023/04/23 08:26:56;;;;;;;11.90;8.13;;;;;;;24.77;64.75;99832.28;5165794;28;20037;-72
2023/04/23 08:29:27;;;;;;;14.02;10.23;;;;;;;25.06;64.29;99827.34;5190812;28;20237;-73
2023/04/23 08:31:57;;;;;;;13.38;9.63;;;;;;;26.38;63.87;99824.13;5194382;28;20479;-72
2023/04/23 08:34:29;;;;;;;10.77;8.23;;;;;;;25.95;61.56;99821.06;5190529;28;20053;-73
2023/04/23 08:37:00;;;;;;;12.82;9.50;;;;;;;26.00;60.97;99822.22;5189800;28;20437;-73
2023/04/23 08:39:39;;;;;;;11.70;8.98;;;;;;;26.82;56.43;99823.47;5189603;28;20041;-74
2023/04/23 08:42:22;;;;;;;9.68;7.55;;;;;;;25.82;60.92;99826.91;5188521;28;20038;-73
2023/04/23 08:44:54;;;;;;;10.18;7.22;;;;;;;24.73;60.53;99820.22;5185966;28;20277;-73
2023/04/23 08:47:28;;;;;;;11.00;7.93;;;;;;;26.29;56.87;99829.69;5163983;28;20418;-71
2023/04/23 08:50:00;;;;;;;12.05;7.65;;;;;;;25.73;56.18;99827.06;5188610;28;20045;-73
2023/04/23 08:52:34;;;;;;;11.05;7.95;;;;;;;24.83;60.69;99837.78;5164256;28;20100;-72
2023/04/23 08:55:09;;;;;;;11.75;7.53;;;;;;;25.04;57.79;99829.34;5189717;28;20053;-71
2023/04/23 08:57:40;;;;;;;11.23;7.88;;;;;;;25.65;56.95;99821.75;5181886;28;20079;-73
2023/04/23 09:00:12;;;;;;;11.20;7.40;;;;;;;26.94;54.65;99822.06;5182609;28;20096;-70
2023/04/23 09:02:45;;;;;;;12.23;8.70;;;;;;;25.51;57.88;99823.22;5188178;28;20051;-74
2023/04/23 09:05:15;;;;;;;12.38;8.13;;;;;;;27.17;55.62;99811.38;5183149;28;20556;-73
2023/04/23 09:07:46;;;;;;;11.95;7.78;;;;;;;25.82;55.52;99832.25;5185236;28;20099;-73
2023/04/23 09:10:16;;;;;;;10.88;7.75;;;;;;;25.07;59.42;99826.31;5188153;28;20040;-73
2023/04/23 09:12:47;;;;;;;10.30;7.40;;;;;;;24.89;58.34;99838.97;5184488;28;20041;-72
2023/04/23 09:15:17;;;;;;;11.68;7.78;;;;;;;23.97;60.42;99831.84;5186561;28;20029;-73
2023/04/23 09:17:48;;;;;;;12.00;8.27;;;;;;;23.29;63.25;99835.25;5182118;28;20041;-72
2023/04/23 09:20:19;;;;;;;13.85;8.65;;;;;;;23.41;63.21;99828.72;5167759;28;20022;-73
2023/04/23 09:22:54;;;;;;;14.35;9.10;;;;;;;23.40;64.30;99823.53;5183198;28;20409;-73
2023/04/23 09:25:24;;;;;;;12.80;8.47;;;;;;;22.43;66.22;99831.41;5185609;28;20378;-73
2023/04/23 09:27:57;;;;;;;12.68;7.85;;;;;;;22.71;64.18;99830.44;5180744;28;20715;-73
2023/04/23 09:30:28;;;;;;;14.20;7.20;;;;;;;22.11;67.94;99827.47;5181920;28;20259;-74
2023/04/23 09:32:58;;;;;;;8.25;5.97;;;;;;;22.13;65.34;99815.69;5187177;28;20745;-73
2023/04/23 09:35:31;;;;;;;12.32;7.35;;;;;;;22.07;64.92;99826.09;5185007;28;20045;-73
2023/04/23 09:38:06;;;;;;;9.95;6.20;;;;;;;21.59;65.46;99823.47;5181566;28;20025;-73
2023/04/23 09:40:37;;;;;;;11.57;6.97;;;;;;;20.85;65.76;99829.47;5180840;28;20042;-72
2023/04/23 09:43:09;;;;;;;12.68;7.07;;;;;;;20.96;66.55;99815.22;5184085;28;20411;-73
2023/04/23 09:45:49;;;;;;;10.45;6.40;;;;;;;20.76;64.66;99816.97;5185166;28;20064;-71
2023/04/23 09:48:20;;;;;;;12.00;6.95;;;;;;;20.93;68.56;99818.97;5178867;28;20526;-73
2023/04/23 09:50:54;;;;;;;12.98;7.43;;;;;;;21.02;67.03;99817.31;5184184;28;20045;-71
2023/04/23 09:53:25;;;;;;;12.02;7.47;;;;;;;21.29;64.64;99815.69;5184512;28;20022;-73
2023/04/23 09:55:55;;;;;;;13.75;7.25;;;;;;;21.25;67.29;99805.47;5182418;28;20456;-73
2023/04/23 09:58:25;;;;;;;15.20;7.50;;;;;;;21.33;65.97;99803.78;5179337;28;20570;-73
2023/04/23 10:01:05;;;;;;;9.40;6.07;;;;;;;21.44;67.09;99805.44;5178747;28;20304;-73
2023/04/23 10:03:41;;;;;;;9.80;6.45;;;;;;;21.37;65.59;99812.31;5164086;28;20549;-71
2023/04/23 10:06:14;;;;;;;10.25;6.15;;;;;;;21.40;67.92;99810.19;5182469;28;20552;-71
2023/04/23 10:08:45;;;;;;;13.60;7.53;;;;;;;21.38;69.72;99808.69;5177958;28;20030;-73
2023/04/23 10:11:15;;;;;;;13.80;7.47;;;;;;;20.86;67.95;99814.38;5160243;28;20044;-73
2023/04/23 10:13:46;;;;;;;10.88;6.50;;;;;;;20.89;69.06;99808.78;5178411;28;20025;-73
2023/04/23 10:16:19;;;;;;;9.88;5.35;;;;;;;20.42;64.92;99817.44;5183573;28;20025;-73
2023/04/23 10:18:51;;;;;;;7.05;3.90;;;;;;;20.63;63.70;99812.88;5177909;28;20033;-72
2023/04/23 10:21:28;;;;;;;8.43;4.65;;;;;;;21.07;63.64;99817.75;5164748;28;20099;-73
2023/04/23 10:24:01;;;;;;;8.15;4.75;;;;;;;20.94;64.58;99811.88;5181297;28;20140;-70
2023/04/23 10:26:32;;;;;;;6.53;3.85;;;;;;;21.10;61.75;99804.19;5184011;28;20038;-72
2023/04/23 10:29:08;;;;;;;7.07;4.00;;;;;;;20.95;61.90;99811.75;5179145;28;20033;-72
2023/04/23 10:31:39;;;;;;;6.95;4.28;;;;;;;20.71;64.43;99799.78;5185256;28;20045;-72
2023/04/23 10:34:10;;;;;;;7.90;4.80;;;;;;;20.89;65.41;99808.78;5182305;28;20299;-73
2023/04/23 10:36:40;;;;;;;7.10;4.43;;;;;;;20.90;66.15;99799.84;5183275;28;20536;-71
2023/04/23 10:39:12;;;;;;;7.15;4.25;;;;;;;20.54;64.79;99808.41;5166050;28;20048;-70
2023/04/23 10:41:43;;;;;;;8.48;5.20;;;;;;;20.21;64.55;99800.75;5181578;28;20038;-72
2023/04/23 10:44:17;;;;;;;8.85;5.30;;;;;;;20.77;67.26;99794.78;5188201;28;20026;-71
2023/04/23 10:46:59;;;;;;;6.90;5.05;;;;;;;20.96;68.97;99794.81;5178490;28;20045;-72
2023/04/23 10:49:31;;;;;;;7.68;4.80;;;;;;;21.11;66.59;99782.81;5185869;28;20033;-71
2023/04/23 10:52:06;;;;;;;8.25;4.78;;;;;;;21.00;65.38;99795.34;5168797;28;20081;-72
2023/04/23 10:54:37;;;;;;;7.68;4.53;;;;;;;20.71;65.14;99782.00;5186612;28;20618;-72
2023/04/23 10:57:09;;;;;;;9.48;5.40;;;;;;;20.47;65.43;99780.69;5186859;28;20128;-72
2023/04/23 10:59:50;;;;;;;7.72;4.85;;;;;;;20.37;64.64;99777.19;5180627;28;20038;-71
2023/04/23 11:02:23;;;;;;;7.03;4.80;;;;;;;19.83;64.43;99774.03;5190871;28;20033;-73
2023/04/23 11:04:57;;;;;;;7.85;5.20;;;;;;;19.54;63.78;99773.00;5182705;28;20134;-73
2023/04/23 11:07:32;;;;;;;6.65;4.35;;;;;;;19.61;62.80;99784.75;5187175;28;20045;-73
2023/04/23 11:10:13;;;;;;;7.90;4.57;;;;;;;19.96;63.38;99785.22;5166723;28;20031;-73
2023/04/23 11:12:43;;;;;;;8.50;4.70;;;;;;;20.02;61.64;99784.75;5163382;28;20059;-72
2023/04/23 11:15:17;;;;;;;11.10;4.60;;;;;;;20.14;62.12;99788.97;5186347;28;20482;-72
2023/04/23 11:17:53;;;;;;;8.00;4.28;;;;;;;20.36;65.89;99783.47;5192013;28;20037;-71
2023/04/23 11:20:23;;;;;;;7.43;3.97;;;;;;;20.50;64.69;99780.44;5188454;28;20442;-73
2023/04/23 11:22:54;;;;;;;6.38;4.30;;;;;;;20.84;66.53;99784.44;5189269;28;20099;-72
2023/04/23 11:25:26;;;;;;;8.27;4.88;;;;;;;21.08;67.85;99791.03;5191525;28;20028;-72
2023/04/23 11:27:57;;;;;;;7.75;4.10;;;;;;;21.31;64.65;99784.47;5189078;28;20053;-72
2023/04/23 11:30:28;;;;;;;7.50;4.40;;;;;;;21.29;64.33;99780.25;5186214;28;20555;-71
2023/04/23 11:32:59;;;;;;;6.20;4.22;;;;;;;21.00;64.45;99780.28;5187180;28;20578;-71
2023/04/23 11:35:38;;;;;;;6.72;4.38;;;;;;;20.96;64.13;99778.03;5190248;28;20037;-73
2023/04/23 11:38:09;;;;;;;7.68;4.72;;;;;;;20.74;64.27;99773.75;5188497;28;20041;-72
2023/04/23 11:40:41;;;;;;;5.07;3.72;;;;;;;20.82;63.95;99771.28;5188508;28;20026;-72
2023/04/23 11:43:17;;;;;;;7.32;4.00;;;;;;;21.11;64.92;99772.16;5193029;28;20044;-72